createdAt,value
2018-07-19T00:01:37.284Z,3.20
2018-07-19T00:04:06.004Z,3.03
2018-07-19T00:06:34.609Z,3.13
2018-07-19T00:09:04.353Z,3.17
2018-07-19T00:11:33.040Z,2.93
2018-07-19T00:14:01.629Z,2.90
2018-07-19T00:16:30.336Z,3.00
2018-07-19T00:18:58.982Z,2.67
2018-07-19T00:21:27.636Z,3.07
2018-07-19T00:23:56.217Z,3.07
2018-07-19T00:26:24.860Z,3.10
2018-07-19T00:28:53.476Z,3.10
2018-07-19T00:31:22.016Z,3.20
2018-07-19T00:33:50.691Z,3.27
2018-07-19T00:36:19.349Z,3.30
2018-07-19T00:38:47.977Z,3.17
2018-07-19T00:41:16.640Z,3.00
2018-07-19T00:43:45.346Z,3.20
2018-07-19T00:46:14.005Z,3.27
2018-07-19T00:48:42.697Z,2.83
2018-07-19T00:51:11.354Z,2.90
2018-07-19T00:53:40.111Z,2.90
2018-07-19T00:56:08.749Z,3.10
2018-07-19T01:01:34.179Z,2.80
2018-07-19T01:04:02.920Z,3.10
2018-07-19T01:06:31.567Z,2.70
2018-07-19T01:09:00.196Z,2.93
2018-07-19T01:11:28.880Z,3.40
2018-07-19T01:13:57.565Z,3.17
2018-07-19T01:16:26.189Z,3.27
2018-07-19T01:18:54.885Z,3.30
2018-07-19T01:21:23.538Z,3.20
2018-07-19T01:23:52.270Z,3.50
2018-07-19T01:26:20.996Z,3.13
2018-07-19T01:28:49.717Z,2.97
2018-07-19T01:31:18.466Z,3.23
2018-07-19T01:33:47.182Z,3.00
2018-07-19T01:36:15.849Z,3.10
2018-07-19T01:38:44.470Z,2.90
2018-07-19T01:41:24.127Z,3.03
2018-07-19T01:43:52.761Z,3.13
2018-07-19T01:46:21.446Z,3.03
2018-07-19T01:48:50.116Z,3.47
2018-07-19T01:51:18.757Z,3.17
2018-07-19T01:53:47.380Z,3.23
2018-07-19T01:56:16.086Z,2.93
2018-07-19T01:58:44.772Z,3.47
2018-07-19T02:01:13.508Z,3.20
2018-07-19T02:03:42.160Z,2.87
2018-07-19T02:06:10.784Z,3.30
2018-07-19T02:08:39.452Z,3.10
2018-07-19T02:11:08.116Z,3.30
2018-07-19T02:13:36.730Z,2.73
2018-07-19T02:16:05.636Z,3.00
2018-07-19T02:18:34.257Z,2.63
2018-07-19T02:21:02.957Z,2.80
2018-07-19T02:23:31.561Z,2.83
2018-07-19T02:26:00.249Z,3.10
2018-07-19T02:28:28.910Z,3.00
2018-07-19T02:30:57.590Z,3.20
2018-07-19T02:33:26.224Z,3.03
2018-07-19T02:35:54.972Z,4.03
2018-07-19T02:38:23.600Z,2.90
2018-07-19T02:40:52.309Z,5.70
2018-07-19T02:43:20.962Z,9.57
2018-07-19T02:45:49.595Z,6.17
2018-07-19T02:48:22.729Z,3.63
2018-07-19T02:50:51.577Z,3.40
2018-07-19T02:53:20.270Z,3.37
2018-07-19T02:56:02.625Z,3.23
2018-07-19T02:58:31.316Z,3.70
2018-07-19T03:01:00.000Z,3.60
2018-07-19T03:03:28.686Z,3.10
2018-07-19T03:05:57.378Z,3.30
2018-07-19T03:08:26.153Z,3.23
2018-07-19T03:10:54.805Z,3.87
2018-07-19T03:13:23.515Z,3.50
2018-07-19T03:15:52.255Z,3.40
2018-07-19T03:18:20.898Z,3.87
2018-07-19T03:20:49.580Z,3.40
2018-07-19T03:23:18.288Z,4.20
2018-07-19T03:25:46.956Z,3.67
2018-07-19T03:28:15.589Z,3.87
2018-07-19T03:30:44.341Z,3.73
2018-07-19T03:33:12.963Z,3.40
2018-07-19T03:35:41.628Z,3.80
2018-07-19T03:38:10.277Z,3.17
2018-07-19T03:40:38.880Z,3.37
2018-07-19T03:43:07.541Z,3.50
2018-07-19T03:45:36.350Z,3.40
2018-07-19T03:48:05.140Z,3.30
2018-07-19T03:50:33.764Z,3.23
2018-07-19T03:53:02.380Z,3.30
2018-07-19T03:55:31.009Z,3.30
2018-07-19T03:57:59.730Z,3.63
2018-07-19T04:00:28.433Z,3.23
2018-07-19T04:02:57.120Z,3.40
2018-07-19T04:05:25.715Z,3.40
2018-07-19T04:07:54.399Z,3.50
2018-07-19T04:10:23.132Z,3.60
2018-07-19T04:12:51.836Z,3.30
2018-07-19T04:15:20.556Z,3.57
2018-07-19T04:17:58.014Z,3.00
2018-07-19T04:20:27.865Z,3.37
2018-07-19T04:22:56.853Z,3.30
2018-07-19T04:25:25.945Z,3.50
2018-07-19T04:27:55.401Z,3.60
2018-07-19T04:30:24.084Z,3.83
2018-07-19T04:32:52.814Z,3.50
2018-07-19T04:35:21.668Z,4.00
2018-07-19T04:37:50.289Z,4.03
2018-07-19T04:40:18.994Z,3.03
2018-07-19T04:42:47.674Z,3.20
2018-07-19T04:45:16.344Z,3.60
2018-07-19T04:47:45.009Z,3.53
2018-07-19T04:50:13.642Z,3.47
2018-07-19T04:52:42.301Z,3.70
2018-07-19T04:55:10.999Z,3.40
2018-07-19T04:57:39.637Z,3.30
2018-07-19T05:00:08.412Z,3.20
2018-07-19T05:02:37.016Z,3.90
2018-07-19T05:08:07.049Z,3.80
2018-07-19T05:10:35.852Z,3.70
2018-07-19T05:13:04.524Z,4.23
2018-07-19T05:15:33.236Z,3.77
2018-07-19T05:18:01.919Z,3.83
2018-07-19T05:20:30.623Z,3.73
2018-07-19T05:22:59.272Z,3.90
2018-07-19T05:25:28.004Z,4.23
2018-07-19T05:27:56.639Z,3.90
2018-07-19T05:30:25.363Z,4.03
2018-07-19T05:32:53.980Z,3.90
2018-07-19T05:35:22.408Z,3.47
2018-07-19T05:37:51.085Z,3.73
2018-07-19T05:40:19.836Z,3.90
2018-07-19T05:42:48.514Z,4.37
2018-07-19T05:45:17.339Z,4.10
2018-07-19T05:47:45.995Z,3.80
2018-07-19T05:50:14.741Z,3.70
2018-07-19T05:52:43.360Z,3.20
2018-07-19T05:55:12.041Z,3.70
2018-07-19T05:57:40.723Z,3.50
2018-07-19T06:00:09.460Z,3.37
2018-07-19T06:02:38.236Z,3.40
2018-07-19T06:05:06.944Z,3.80
2018-07-19T06:07:35.584Z,3.67
2018-07-19T06:10:04.609Z,3.50
2018-07-19T06:12:33.274Z,3.47
2018-07-19T06:15:02.042Z,3.03
2018-07-19T06:17:30.853Z,3.50
2018-07-19T06:19:59.445Z,3.93
2018-07-19T06:22:28.128Z,3.30
2018-07-19T06:24:56.796Z,3.27
2018-07-19T06:27:25.530Z,3.37
2018-07-19T06:29:54.142Z,3.57
2018-07-19T06:32:22.834Z,3.07
2018-07-19T06:34:51.488Z,4.47
2018-07-19T06:37:20.180Z,3.53
2018-07-19T06:39:48.869Z,4.50
2018-07-19T06:42:17.572Z,4.30
2018-07-19T06:44:46.164Z,3.73
2018-07-19T06:47:14.758Z,4.13
2018-07-19T06:49:43.373Z,4.00
2018-07-19T06:52:12.232Z,3.57
2018-07-19T06:54:40.879Z,3.20
2018-07-19T06:57:09.604Z,3.70
2018-07-19T06:59:38.195Z,2.80
2018-07-19T07:02:06.943Z,2.90
2018-07-19T07:04:35.620Z,2.87
2018-07-19T07:07:04.559Z,2.80
2018-07-19T07:09:33.321Z,2.60
2018-07-19T07:12:01.996Z,2.40
2018-07-19T07:14:30.656Z,2.50
2018-07-19T07:16:59.341Z,3.00
2018-07-19T07:19:28.005Z,2.47
2018-07-19T07:21:57.608Z,2.27
2018-07-19T07:24:27.768Z,2.20
2018-07-19T07:26:57.659Z,2.47
2018-07-19T07:29:26.757Z,2.70
2018-07-19T07:32:03.564Z,2.10
2018-07-19T07:34:34.685Z,2.03
2018-07-19T07:37:04.013Z,2.23
2018-07-19T07:39:33.836Z,1.83
2018-07-19T07:42:04.062Z,2.10
2018-07-19T07:44:33.162Z,2.40
2018-07-19T07:47:02.285Z,2.20
2018-07-19T07:49:31.457Z,1.97
2018-07-19T07:52:02.839Z,2.07
2018-07-19T07:54:32.503Z,1.90
2018-07-19T07:57:01.773Z,2.27
2018-07-19T07:59:31.035Z,2.43
2018-07-19T08:02:00.140Z,2.17
2018-07-19T08:04:30.533Z,2.40
2018-07-19T08:06:59.736Z,1.87
2018-07-19T08:09:28.888Z,1.90
2018-07-19T08:11:58.012Z,2.50
2018-07-19T08:14:26.862Z,2.10
2018-07-19T08:19:50.137Z,2.07
2018-07-19T08:22:30.164Z,2.00
2018-07-19T08:24:59.339Z,2.20
2018-07-19T08:27:28.407Z,2.10
2018-07-19T08:29:57.364Z,1.83
2018-07-19T08:32:26.652Z,2.17
2018-07-19T08:34:55.553Z,1.87
2018-07-19T08:37:24.760Z,2.77
2018-07-19T08:39:53.839Z,2.20
2018-07-19T08:42:42.308Z,2.07
2018-07-19T08:45:11.356Z,2.30
2018-07-19T08:47:40.416Z,2.27
2018-07-19T08:50:15.144Z,2.00
2018-07-19T08:52:44.078Z,2.20
2018-07-19T08:55:14.094Z,2.30
2018-07-19T08:57:43.769Z,2.07
2018-07-19T09:00:13.571Z,2.03
2018-07-19T09:02:44.747Z,2.10
2018-07-19T09:05:14.721Z,1.90
2018-07-19T09:07:44.069Z,2.00
2018-07-19T09:10:12.976Z,2.00
2018-07-19T09:12:45.068Z,2.30
2018-07-19T09:15:14.286Z,2.13
2018-07-19T09:17:44.987Z,2.20
2018-07-19T09:20:14.209Z,2.20
2018-07-19T09:22:42.785Z,2.13
2018-07-19T09:25:11.456Z,2.30
2018-07-19T09:27:40.463Z,1.90
2018-07-19T09:30:09.204Z,2.00
2018-07-19T09:32:39.238Z,2.10
2018-07-19T09:35:07.895Z,2.00
2018-07-19T09:40:37.947Z,2.13
2018-07-19T09:43:06.612Z,1.97
2018-07-19T09:45:35.225Z,2.20
2018-07-19T09:48:03.817Z,2.10
2018-07-19T09:50:32.540Z,2.20
2018-07-19T09:53:01.161Z,2.20
2018-07-19T09:55:29.763Z,1.70
2018-07-19T09:57:59.212Z,2.20
2018-07-19T10:00:33.625Z,2.30
2018-07-19T10:03:13.156Z,2.30
2018-07-19T10:05:41.807Z,2.00
2018-07-19T10:08:10.364Z,1.90
2018-07-19T10:10:39.056Z,1.80
2018-07-19T10:13:07.661Z,2.00
2018-07-19T10:15:37.557Z,1.97
2018-07-19T10:18:06.188Z,2.10
2018-07-19T10:20:34.852Z,1.87
2018-07-19T10:23:03.377Z,1.80
2018-07-19T10:25:32.032Z,1.90
2018-07-19T10:28:00.604Z,1.87
2018-07-19T10:30:32.644Z,2.00
2018-07-19T10:33:01.222Z,2.10
2018-07-19T10:35:29.792Z,1.70
2018-07-19T10:37:58.368Z,1.80
2018-07-19T10:40:27.032Z,1.90
2018-07-19T10:42:55.611Z,1.90
2018-07-19T10:45:24.316Z,2.37
2018-07-19T10:47:52.908Z,1.80
2018-07-19T10:50:21.545Z,1.77
2018-07-19T10:52:50.306Z,1.93
2018-07-19T10:55:18.951Z,1.80
2018-07-19T10:57:47.517Z,1.60
2018-07-19T11:00:16.377Z,1.90
2018-07-19T11:02:45.011Z,1.70
2018-07-19T11:05:15.178Z,1.50
2018-07-19T11:07:44.085Z,1.70
2018-07-19T11:10:12.636Z,1.90
2018-07-19T11:12:41.189Z,1.60
2018-07-19T11:15:09.876Z,1.70
2018-07-19T11:17:38.412Z,1.90
2018-07-19T11:20:15.835Z,1.70
2018-07-19T11:22:44.583Z,1.60
2018-07-19T11:25:13.194Z,1.50
2018-07-19T11:27:41.768Z,1.70
2018-07-19T11:30:10.343Z,1.63
2018-07-19T11:32:38.939Z,1.80
2018-07-19T11:35:07.516Z,1.63
2018-07-19T11:37:36.172Z,1.50
2018-07-19T11:40:04.816Z,1.70
2018-07-19T11:42:33.380Z,1.77
2018-07-19T11:45:01.946Z,1.80
2018-07-19T11:47:30.596Z,2.10
2018-07-19T11:49:59.166Z,1.90
2018-07-19T11:52:27.777Z,1.73
2018-07-19T11:54:56.312Z,2.00
2018-07-19T11:57:25.253Z,1.73
2018-07-19T11:59:53.868Z,1.83
2018-07-19T12:02:22.560Z,1.83
2018-07-19T12:04:51.135Z,1.87
2018-07-19T12:07:19.738Z,1.90
2018-07-19T12:09:48.243Z,1.57
2018-07-19T12:12:16.893Z,1.87
2018-07-19T12:14:45.523Z,1.67
2018-07-19T12:17:14.265Z,1.80
2018-07-19T12:19:42.862Z,1.70
2018-07-19T12:22:11.492Z,1.90
2018-07-19T12:24:40.440Z,1.70
2018-07-19T12:27:09.020Z,1.77
2018-07-19T12:29:37.600Z,1.70
2018-07-19T12:32:06.232Z,1.57
2018-07-19T12:34:34.977Z,1.70
2018-07-19T12:37:03.618Z,1.70
2018-07-19T12:39:32.221Z,1.90
2018-07-19T12:42:00.904Z,1.67
2018-07-19T12:44:29.520Z,1.80
2018-07-19T12:47:20.796Z,2.00
2018-07-19T12:49:49.370Z,1.87
2018-07-19T12:52:17.949Z,2.00
2018-07-19T12:54:46.629Z,1.60
2018-07-19T12:57:15.204Z,1.73
2018-07-19T12:59:43.784Z,1.80
2018-07-19T13:02:12.605Z,1.50
2018-07-19T13:04:41.221Z,1.93
2018-07-19T13:07:09.856Z,1.97
2018-07-19T13:09:38.410Z,1.70
2018-07-19T13:12:07.024Z,1.73
2018-07-19T13:14:35.817Z,1.90
2018-07-19T13:17:04.463Z,1.90
2018-07-19T13:19:33.016Z,1.80
2018-07-19T13:22:01.614Z,2.27
2018-07-19T13:24:30.319Z,1.60
2018-07-19T13:26:58.969Z,1.83
2018-07-19T13:29:27.549Z,1.83
2018-07-19T13:31:56.121Z,1.67
2018-07-19T13:34:24.709Z,1.60
2018-07-19T13:36:53.320Z,1.53
2018-07-19T13:39:21.840Z,1.80
2018-07-19T13:41:50.679Z,1.53
2018-07-19T13:44:19.281Z,1.70
2018-07-19T13:46:47.952Z,1.60
2018-07-19T13:49:16.533Z,1.53
2018-07-19T13:51:45.147Z,1.93
2018-07-19T13:54:21.009Z,1.63
2018-07-19T13:56:49.620Z,1.97
2018-07-19T13:59:18.367Z,1.83
2018-07-19T14:01:46.944Z,1.70
2018-07-19T14:04:15.524Z,1.70
2018-07-19T14:06:44.109Z,2.00
2018-07-19T14:09:14.936Z,1.40
2018-07-19T14:11:43.537Z,1.70
2018-07-19T14:14:12.124Z,1.73
2018-07-19T14:16:40.713Z,1.60
2018-07-19T14:19:09.324Z,1.80
2018-07-19T14:21:37.864Z,1.83
2018-07-19T14:24:06.564Z,1.60
2018-07-19T14:26:35.114Z,2.00
2018-07-19T14:29:06.177Z,1.83
2018-07-19T14:31:35.878Z,1.77
2018-07-19T14:34:04.572Z,1.60
2018-07-19T14:36:33.165Z,2.00
2018-07-19T14:39:01.764Z,1.60
2018-07-19T14:41:30.325Z,1.70
2018-07-19T14:43:58.879Z,1.80
2018-07-19T14:46:27.443Z,1.87
2018-07-19T14:48:55.953Z,1.70
2018-07-19T14:51:24.644Z,1.60
2018-07-19T14:53:53.246Z,1.67
2018-07-19T14:56:21.780Z,1.80
2018-07-19T14:58:50.343Z,1.90
2018-07-19T15:01:19.422Z,1.97
2018-07-19T15:03:47.999Z,1.80
2018-07-19T15:06:16.688Z,1.80
2018-07-19T15:08:45.232Z,1.70
2018-07-19T15:11:13.828Z,1.87
2018-07-19T15:13:42.531Z,1.80
2018-07-19T15:16:11.177Z,1.87
2018-07-19T15:18:39.753Z,1.70
2018-07-19T15:21:08.328Z,1.80
2018-07-19T15:23:36.895Z,1.90
2018-07-19T15:26:05.501Z,1.60
2018-07-19T15:28:34.107Z,1.73
2018-07-19T15:31:05.715Z,1.70
2018-07-19T15:33:34.347Z,1.70
2018-07-19T15:36:02.892Z,1.77
2018-07-19T15:38:31.476Z,1.87
2018-07-19T15:41:00.057Z,1.87
2018-07-19T15:43:28.665Z,1.83
2018-07-19T15:45:57.263Z,1.80
2018-07-19T15:48:25.867Z,1.90
2018-07-19T15:50:54.424Z,2.00
2018-07-19T15:53:22.990Z,2.20
2018-07-19T15:55:51.616Z,2.00
2018-07-19T15:58:20.255Z,1.70
2018-07-19T16:00:48.899Z,1.90
2018-07-19T16:03:17.560Z,2.03
2018-07-19T16:05:46.172Z,1.97
2018-07-19T16:08:14.703Z,2.10
2018-07-19T16:10:43.324Z,2.20
2018-07-19T16:13:11.876Z,2.10
2018-07-19T16:15:40.501Z,2.20
2018-07-19T16:18:09.161Z,2.47
2018-07-19T16:20:37.860Z,2.40
2018-07-19T16:23:13.432Z,2.40
2018-07-19T16:25:42.325Z,2.00
2018-07-19T16:28:11.095Z,2.10
2018-07-19T16:30:39.665Z,1.67
2018-07-19T16:33:08.265Z,2.40
2018-07-19T16:35:36.885Z,2.00
2018-07-19T16:38:05.507Z,2.43
2018-07-19T16:40:34.152Z,2.00
2018-07-19T16:43:02.884Z,1.83
2018-07-19T16:45:31.440Z,2.10
2018-07-19T16:47:59.992Z,2.03
2018-07-19T16:50:28.593Z,2.07
2018-07-19T16:52:57.292Z,2.27
2018-07-19T16:55:25.951Z,2.20
2018-07-19T16:57:54.568Z,2.10
2018-07-19T17:00:23.243Z,4.70
2018-07-19T17:02:51.800Z,3.33
2018-07-19T17:05:20.450Z,2.30
2018-07-19T17:07:49.048Z,1.97
2018-07-19T17:10:17.757Z,1.83
2018-07-19T17:12:46.378Z,2.00
2018-07-19T17:15:14.957Z,1.93
2018-07-19T17:17:43.533Z,2.13
2018-07-19T17:20:12.231Z,1.90
2018-07-19T17:22:40.832Z,2.00
2018-07-19T17:25:09.488Z,2.30
2018-07-19T17:27:38.069Z,2.10
2018-07-19T17:30:07.148Z,1.80
2018-07-19T17:32:35.776Z,2.20
2018-07-19T17:35:04.496Z,2.17
2018-07-19T17:37:33.072Z,2.07
2018-07-19T17:40:01.676Z,2.00
2018-07-19T17:42:30.484Z,2.23
2018-07-19T17:44:58.991Z,2.40
2018-07-19T17:47:27.698Z,2.20
2018-07-19T17:49:56.290Z,2.03
2018-07-19T17:52:24.936Z,2.30
2018-07-19T17:54:53.531Z,2.20
2018-07-19T17:57:22.176Z,2.33
2018-07-19T17:59:50.830Z,2.10
2018-07-19T18:02:19.420Z,2.47
2018-07-19T18:04:48.008Z,2.20
2018-07-19T18:07:16.600Z,2.30
2018-07-19T18:09:45.214Z,2.07
2018-07-19T18:12:13.845Z,2.03
2018-07-19T18:14:42.420Z,2.17
2018-07-19T18:17:11.029Z,2.20
2018-07-19T18:19:39.592Z,2.07
2018-07-19T18:22:08.153Z,2.13
2018-07-19T18:24:36.752Z,2.30
2018-07-19T18:27:05.520Z,2.23
2018-07-19T18:29:34.168Z,2.60
2018-07-19T18:32:02.801Z,2.30
2018-07-19T18:34:31.542Z,2.27
2018-07-19T18:37:00.170Z,2.20
2018-07-19T18:39:28.772Z,2.70
2018-07-19T18:41:57.480Z,2.20
2018-07-19T18:44:26.111Z,2.40
2018-07-19T18:46:54.829Z,2.73
2018-07-19T18:49:23.477Z,2.57
2018-07-19T18:51:52.060Z,2.57
2018-07-19T18:54:20.633Z,2.40
2018-07-19T18:56:49.340Z,2.50
2018-07-19T18:59:18.029Z,2.40
2018-07-19T19:01:46.673Z,2.33
2018-07-19T19:04:15.378Z,2.50
2018-07-19T19:06:43.986Z,2.53
2018-07-19T19:09:13.104Z,2.33
2018-07-19T19:11:41.806Z,3.00
2018-07-19T19:14:11.039Z,3.00
2018-07-19T19:16:39.719Z,3.40
2018-07-19T19:19:08.506Z,3.30
2018-07-19T19:21:37.180Z,3.03
2018-07-19T19:24:06.092Z,2.60
2018-07-19T19:26:34.870Z,3.27
2018-07-19T19:29:03.617Z,2.53
2018-07-19T19:31:32.156Z,2.97
2018-07-19T19:34:00.740Z,2.97
2018-07-19T19:36:29.599Z,3.50
2018-07-19T19:38:58.233Z,2.73
2018-07-19T19:41:26.884Z,2.90
2018-07-19T19:43:55.685Z,3.50
2018-07-19T19:46:24.349Z,3.40
2018-07-19T19:48:53.033Z,3.00
2018-07-19T19:51:21.730Z,3.60
2018-07-19T19:53:50.349Z,3.17
2018-07-19T19:56:18.912Z,3.13
2018-07-19T19:58:48.076Z,2.93
2018-07-19T20:01:16.988Z,3.17
2018-07-19T20:03:45.723Z,2.80
2018-07-19T20:06:14.314Z,3.27
2018-07-19T20:08:43.064Z,3.50
2018-07-19T20:11:11.696Z,3.17
2018-07-19T20:13:40.425Z,2.93
2018-07-19T20:16:09.304Z,3.30
2018-07-19T20:18:39.140Z,3.03
2018-07-19T20:21:08.141Z,3.37
2018-07-19T20:23:37.347Z,3.07
2018-07-19T20:26:06.574Z,2.87
2018-07-19T20:28:35.614Z,3.10
2018-07-19T20:31:04.619Z,3.10
2018-07-19T20:33:33.360Z,3.40
2018-07-19T20:36:01.984Z,3.20
2018-07-19T20:38:30.665Z,2.70
2018-07-19T20:40:59.325Z,3.60
2018-07-19T20:43:28.118Z,2.97
2018-07-19T20:45:56.721Z,3.00
2018-07-19T20:48:38.900Z,3.10
2018-07-19T20:51:07.617Z,4.23
2018-07-19T20:53:36.337Z,3.03
2018-07-19T20:56:05.328Z,3.80
2018-07-19T20:58:33.956Z,3.10
2018-07-19T21:01:02.646Z,3.40
2018-07-19T21:03:31.385Z,3.07
2018-07-19T21:06:00.660Z,3.03
2018-07-19T21:08:29.328Z,3.30
2018-07-19T21:10:58.024Z,3.13
2018-07-19T21:13:26.637Z,3.33
2018-07-19T21:15:55.326Z,3.40
2018-07-19T21:18:24.009Z,3.37
2018-07-19T21:20:52.688Z,3.57
2018-07-19T21:23:21.389Z,4.00
2018-07-19T21:25:50.081Z,3.33
2018-07-19T21:28:18.641Z,3.10
2018-07-19T21:30:47.228Z,3.37
2018-07-19T21:33:15.813Z,4.03
2018-07-19T21:35:44.508Z,3.40
2018-07-19T21:38:13.124Z,3.30
2018-07-19T21:40:41.857Z,3.80
2018-07-19T21:43:10.539Z,3.47
2018-07-19T21:45:39.255Z,3.10
2018-07-19T21:48:07.826Z,3.20
2018-07-19T21:50:36.414Z,3.43
2018-07-19T21:53:05.203Z,3.47
2018-07-19T21:55:33.894Z,3.37
2018-07-19T21:58:02.788Z,3.47
2018-07-19T22:00:31.641Z,4.17
2018-07-19T22:03:01.681Z,3.13
2018-07-19T22:05:30.292Z,3.40
2018-07-19T22:07:58.953Z,3.60
2018-07-19T22:10:27.815Z,3.63
2018-07-19T22:12:56.525Z,3.37
2018-07-19T22:15:25.165Z,4.03
2018-07-19T22:17:53.844Z,3.70
2018-07-19T22:20:22.460Z,4.00
2018-07-19T22:22:51.142Z,4.03
2018-07-19T22:25:19.795Z,3.63
2018-07-19T22:27:48.436Z,3.50
2018-07-19T22:30:17.097Z,3.70
2018-07-19T22:32:45.859Z,3.53
2018-07-19T22:35:14.537Z,3.63
2018-07-19T22:37:43.272Z,3.70
2018-07-19T22:40:12.028Z,3.90
2018-07-19T22:42:40.725Z,3.87
2018-07-19T22:45:09.336Z,3.53
2018-07-19T22:47:37.940Z,4.00
2018-07-19T22:50:06.849Z,3.83
2018-07-19T22:52:35.437Z,3.80
2018-07-19T22:55:04.164Z,4.07
2018-07-19T22:57:32.792Z,4.07
2018-07-19T23:00:01.400Z,3.90
2018-07-19T23:02:30.149Z,3.90
2018-07-19T23:04:58.768Z,3.70
2018-07-19T23:07:27.382Z,3.97
2018-07-19T23:09:55.957Z,3.60
2018-07-19T23:12:24.572Z,4.20
2018-07-19T23:14:53.168Z,3.90
2018-07-19T23:17:21.886Z,3.83
2018-07-19T23:19:50.529Z,3.90
2018-07-19T23:22:19.155Z,4.07
2018-07-19T23:24:47.796Z,3.87
2018-07-19T23:27:16.449Z,4.13
2018-07-19T23:29:45.156Z,3.87
2018-07-19T23:32:13.856Z,3.90
2018-07-19T23:34:42.440Z,4.23
2018-07-19T23:37:15.172Z,4.10
2018-07-19T23:39:52.769Z,3.97
2018-07-19T23:42:26.556Z,4.00
2018-07-19T23:45:29.541Z,5.00
2018-07-19T23:47:58.228Z,4.30
2018-07-19T23:50:26.828Z,4.00
2018-07-19T23:52:55.712Z,4.27
2018-07-19T23:55:24.390Z,4.20
2018-07-19T23:57:53.108Z,3.97
